Time;durP1;ratioP1;P1;durP2;ratioP2;P2;SDS_P1;SDS_P2;PMS_P1;PMS_P2;Temp;Humidity;BMP_temperature;BMP_pressure;BME280_temperature;BME280_humidity;BME280_pressure;Samples;Min_cycle;Max_cycle;Signal;HPM_P1;HPM_P2
2021/08/23 00:00:07;;;;;;;4.45;2.10;;;;;;;17.54;75.06;100182.41;815467;54;20030;-80
2021/08/23 00:00:53;;;;;;;3.78;1.95;;;;;;;17.53;74.94;100183.44;815203;54;20144;-79
2021/08/23 00:01:44;;;;;;;3.95;2.20;;;;;;;17.45;75.21;100181.69;815401;54;20042;-79
2021/08/23 00:02:30;;;;;;;5.00;2.40;;;;;;;17.49;75.07;100188.38;815319;54;20050;-80
2021/08/23 00:03:18;;;;;;;5.07;2.25;;;;;;;17.54;75.08;100185.97;815357;46;20041;-80
2021/08/23 00:04:04;;;;;;;4.25;2.08;;;;;;;17.70;74.59;100186.78;815799;54;20038;-79
2021/08/23 00:04:59;;;;;;;4.55;2.50;;;;;;;17.62;74.72;100183.16;815533;54;20035;-80
2021/08/23 00:05:45;;;;;;;5.80;2.08;;;;;;;17.47;75.15;100182.34;816505;39;20511;-80
2021/08/23 00:06:33;;;;;;;5.78;2.33;;;;;;;17.49;75.48;100180.28;815191;54;20011;-79
2021/08/23 00:07:19;;;;;;;5.40;2.10;;;;;;;17.49;75.43;100187.56;815504;54;20094;-79
2021/08/23 00:08:09;;;;;;;5.45;2.60;;;;;;;17.51;75.27;100190.91;815676;54;20034;-80
2021/08/23 00:08:55;;;;;;;5.23;2.30;;;;;;;17.55;74.86;100187.66;815663;54;20063;-80
2021/08/23 00:09:47;;;;;;;5.78;2.20;;;;;;;17.58;74.73;100181.84;815752;54;20276;-79
2021/08/23 00:10:33;;;;;;;9.80;2.90;;;;;;;17.53;75.20;100187.00;815524;54;20065;-80
2021/08/23 00:11:22;;;;;;;5.10;2.40;;;;;;;17.47;75.36;100187.75;815784;54;20580;-79
2021/08/23 00:12:08;;;;;;;6.35;2.25;;;;;;;17.51;75.43;100183.63;815331;46;20754;-79
2021/08/23 00:13:02;;;;;;;4.38;2.03;;;;;;;17.51;75.09;100190.91;815508;54;20026;-79
2021/08/23 00:13:48;;;;;;;6.10;2.03;;;;;;;17.49;75.08;100191.09;815623;46;20014;-79
2021/08/23 00:14:37;;;;;;;3.88;2.08;;;;;;;17.58;75.13;100194.53;814964;54;20061;-79
2021/08/23 00:15:23;;;;;;;4.22;2.00;;;;;;;17.51;75.11;100188.22;814566;54;20487;-80
2021/08/23 00:16:12;;;;;;;7.95;2.50;;;;;;;17.45;75.49;100195.19;814649;47;20039;-79
2021/08/23 00:16:58;;;;;;;5.72;2.30;;;;;;;17.37;75.46;100187.19;814764;47;20030;-80
2021/08/23 00:17:46;;;;;;;6.10;2.90;;;;;;;17.41;75.70;100183.94;814810;47;20030;-80
2021/08/23 00:18:33;;;;;;;5.68;2.40;;;;;;;17.38;75.84;100188.88;814695;54;20055;-79
2021/08/23 00:19:22;;;;;;;4.65;2.60;;;;;;;17.43;75.38;100195.38;814725;46;20068;-79
2021/08/23 00:20:10;;;;;;;4.43;2.00;;;;;;;17.50;75.40;100192.78;814568;47;20046;-79
2021/08/23 00:21:02;;;;;;;5.05;2.10;;;;;;;17.49;75.44;100187.56;814701;47;20066;-79
2021/08/23 00:21:50;;;;;;;4.93;2.20;;;;;;;17.51;75.09;100190.91;816565;39;20611;-80
2021/08/23 00:22:47;;;;;;;4.88;2.20;;;;;;;17.42;75.84;100188.31;814607;47;20060;-80
2021/08/23 00:23:36;;;;;;;4.88;2.42;;;;;;;17.51;75.33;100190.91;814769;46;20079;-79
2021/08/23 00:24:25;;;;;;;5.30;2.05;;;;;;;17.36;75.96;100191.75;814988;47;20042;-80
2021/08/23 00:25:22;;;;;;;3.58;1.80;;;;;;;17.48;75.48;100192.09;815156;54;20064;-79
2021/08/23 00:26:08;;;;;;;3.60;2.10;;;;;;;17.53;75.08;100184.28;814981;47;20118;-80
2021/08/23 00:26:59;;;;;;;4.38;2.38;;;;;;;17.50;75.39;100195.47;814953;47;20034;-79
2021/08/23 00:27:45;;;;;;;4.03;2.00;;;;;;;17.38;75.84;100186.16;815308;54;20071;-79
2021/08/23 00:28:34;;;;;;;4.50;2.55;;;;;;;17.31;76.14;100194.19;814672;47;20034;-79
2021/08/23 00:29:20;;;;;;;5.68;2.30;;;;;;;17.36;75.85;100197.16;814684;47;20046;-79
2021/08/23 00:30:09;;;;;;;4.18;1.98;;;;;;;17.47;75.61;100187.75;814899;47;20041;-79
2021/08/23 00:30:56;;;;;;;4.60;2.10;;;;;;;17.37;75.84;100190.72;814998;54;20038;-81
2021/08/23 00:31:44;;;;;;;5.32;2.25;;;;;;;17.35;75.84;100191.94;815295;54;20522;-80
2021/08/23 00:32:30;;;;;;;5.15;2.47;;;;;;;17.46;75.89;100195.00;814703;47;20058;-79
2021/08/23 00:33:19;;;;;;;4.63;1.95;;;;;;;17.49;75.83;100193.78;814433;47;20034;-81
2021/08/23 00:34:05;;;;;;;5.13;2.35;;;;;;;17.53;75.31;100189.69;814473;47;20030;-80
2021/08/23 00:34:53;;;;;;;6.82;2.08;;;;;;;17.45;75.80;100187.91;814788;47;20597;-79
2021/08/23 00:35:39;;;;;;;6.47;2.40;;;;;;;17.46;75.93;100184.19;815089;54;20090;-80
2021/08/23 00:36:29;;;;;;;5.50;2.33;;;;;;;17.48;75.66;100175.06;814976;54;20679;-80
2021/08/23 00:37:16;;;;;;;4.95;2.30;;;;;;;17.38;76.42;100180.78;814672;47;20063;-80
2021/08/23 00:38:05;;;;;;;4.43;2.22;;;;;;;17.39;76.51;100187.81;814639;51;20081;-79
2021/08/23 00:38:51;;;;;;;5.65;2.75;;;;;;;17.22;76.78;100190.72;815136;47;20060;-80
2021/08/23 00:39:37;;;;;;;5.88;2.40;;;;;;;17.37;76.50;100181.78;814947;47;20042;-79
2021/08/23 00:40:29;;;;;;;5.13;2.50;;;;;;;17.35;76.38;100189.25;815569;39;20471;-79
2021/08/23 00:41:15;;;;;;;4.57;2.38;;;;;;;17.28;76.73;100187.28;815065;46;20038;-80
2021/08/23 00:42:06;;;;;;;5.63;2.45;;;;;;;17.31;76.94;100178.78;815006;54;20023;-80
2021/08/23 00:42:52;;;;;;;5.63;2.88;;;;;;;17.40;76.74;100176.84;815477;54;20098;-78
2021/08/23 00:43:41;;;;;;;6.63;2.72;;;;;;;17.24;77.21;100185.13;815041;54;20060;-80
2021/08/23 00:44:29;;;;;;;6.72;2.47;;;;;;;17.22;77.28;100189.88;814861;47;20038;-79
2021/08/23 00:45:18;;;;;;;4.03;2.13;;;;;;;17.19;77.18;100183.00;815007;54;20106;-80
2021/08/23 00:46:04;;;;;;;4.15;2.22;;;;;;;17.20;77.54;100181.13;815464;54;20071;-79
2021/08/23 00:46:52;;;;;;;7.03;2.38;;;;;;;17.17;77.25;100185.03;814780;47;20043;-80
2021/08/23 00:47:38;;;;;;;4.72;2.20;;;;;;;17.16;77.69;100183.34;814631;47;20072;-80
2021/08/23 00:48:28;;;;;;;5.50;2.53;;;;;;;17.22;77.61;100185.31;815205;54;20068;-79
2021/08/23 00:49:14;;;;;;;;;;;;;;;17.09;78.20;100182.41;814993;47;20050;-79
2021/08/23 00:50:03;;;;;;;4.22;2.47;;;;;;;17.21;77.48;100186.31;814773;54;20532;-80
2021/08/23 00:50:49;;;;;;;6.05;2.22;;;;;;;17.27;77.37;100172.09;815573;39;20528;-78
2021/08/23 00:51:37;;;;;;;6.88;3.25;;;;;;;17.15;77.63;100178.97;814901;39;20426;-79
2021/08/23 00:52:24;;;;;;;6.25;2.50;;;;;;;17.21;77.42;100186.31;814237;54;20665;-78
2021/08/23 00:53:15;;;;;;;5.35;2.40;;;;;;;17.31;77.29;100172.56;814622;47;20682;-80
2021/08/23 00:54:00;;;;;;;4.75;2.45;;;;;;;17.31;77.36;100172.56;815136;54;20161;-80
2021/08/23 00:54:49;;;;;;;5.05;2.35;;;;;;;17.23;77.42;100167.25;814826;54;20035;-79
2021/08/23 00:55:38;;;;;;;4.28;2.10;;;;;;;17.36;77.14;100172.00;814681;54;20042;-79
2021/08/23 00:56:28;;;;;;;6.60;2.10;;;;;;;17.39;77.25;100171.59;815135;54;20064;-79
2021/08/23 00:57:14;;;;;;;6.82;2.50;;;;;;;17.23;77.89;100172.66;815287;54;20046;-78
2021/08/23 00:58:03;;;;;;;4.65;2.55;;;;;;;17.18;78.11;100173.22;815055;47;20034;-80
2021/08/23 00:58:50;;;;;;;5.80;3.03;;;;;;;17.17;77.87;100173.38;815162;46;20023;-80
2021/08/23 00:59:43;;;;;;;7.28;2.42;;;;;;;17.08;78.15;100178.88;815129;47;20053;-80
2021/08/23 01:00:32;;;;;;;4.90;2.30;;;;;;;17.09;78.41;100177.84;814796;46;20038;-80
2021/08/23 01:01:28;;;;;;;6.57;2.55;;;;;;;17.12;78.02;100184.72;814608;54;20034;-79
2021/08/23 01:02:21;;;;;;;5.00;2.63;;;;;;;17.19;77.85;100184.84;814906;47;20050;-79
2021/08/23 01:03:15;;;;;;;5.63;2.40;;;;;;;17.30;77.69;100179.00;814827;54;20034;-78
2021/08/23 01:04:05;;;;;;;5.95;2.30;;;;;;;17.26;77.82;100183.06;814845;46;20042;-79
2021/08/23 01:04:58;;;;;;;5.05;2.28;;;;;;;17.33;77.35;100178.63;814306;47;20061;-79
2021/08/23 01:05:45;;;;;;;7.07;2.30;;;;;;;17.29;77.70;100188.94;814741;54;20047;-79
2021/08/23 01:06:35;;;;;;;3.95;1.80;;;;;;;17.30;77.61;100181.69;814364;47;20035;-79
2021/08/23 01:07:26;;;;;;;6.30;2.45;;;;;;;17.17;78.00;100184.19;815276;54;20038;-79
2021/08/23 01:08:24;;;;;;;5.60;2.38;;;;;;;17.29;77.24;100180.00;814925;47;20019;-78
2021/08/23 01:09:13;;;;;;;5.07;2.38;;;;;;;17.37;77.22;100179.09;814463;54;20067;-80
2021/08/23 01:10:06;;;;;;;5.67;2.37;;;;;;;17.27;77.29;100180.19;815326;54;20035;-80
2021/08/23 01:10:56;;;;;;;5.22;2.58;;;;;;;17.31;77.08;100176.09;814753;54;20362;-80
2021/08/23 01:11:49;;;;;;;;;;;;;;;17.22;77.49;100182.59;814641;47;20042;-80
2021/08/23 01:12:36;;;;;;;5.03;2.40;;;;;;;17.20;77.70;100184.66;814485;47;19978;-79
2021/08/23 01:13:25;;;;;;;4.35;2.28;;;;;;;17.26;77.42;100181.22;815069;47;20026;-79
2021/08/23 01:14:11;;;;;;;5.78;2.30;;;;;;;17.34;76.84;100182.16;816582;39;20534;-81
2021/08/23 01:14:58;;;;;;;5.55;2.53;;;;;;;17.31;77.06;100173.38;814570;47;20040;-80
2021/08/23 01:15:48;;;;;;;4.45;2.20;;;;;;;17.36;76.61;100177.41;814602;47;20034;-80
2021/08/23 01:16:34;;;;;;;6.53;2.38;;;;;;;17.36;76.75;100170.13;815450;47;20113;-78
2021/08/23 01:17:23;;;;;;;4.03;2.05;;;;;;;17.24;77.12;100182.44;815222;47;20026;-79
2021/08/23 01:18:09;;;;;;;5.47;2.50;;;;;;;17.23;77.18;100178.06;815409;54;20061;-78
2021/08/23 01:18:55;;;;;;;5.00;2.65;;;;;;;17.22;76.95;100189.88;815206;47;20034;-79
2021/08/23 01:19:52;;;;;;;5.60;2.42;;;;;;;17.15;77.21;100185.19;815221;47;20049;-78
2021/08/23 01:20:42;;;;;;;4.60;2.58;;;;;;;17.37;76.80;100181.78;814567;47;20071;-79
2021/08/23 01:21:34;;;;;;;5.47;2.65;;;;;;;17.38;76.45;100176.19;815502;54;20046;-80
2021/08/23 01:22:21;;;;;;;4.40;2.10;;;;;;;17.45;76.17;100181.69;815426;39;20672;-80
2021/08/23 01:23:11;;;;;;;4.60;2.35;;;;;;;17.42;76.41;100177.50;814831;54;20035;-79
2021/08/23 01:23:57;;;;;;;;;;;;;;;17.24;76.87;100179.75;815069;54;20046;-80
2021/08/23 01:24:49;;;;;;;5.38;2.55;;;;;;;17.22;77.05;100187.19;814887;47;19938;-79
2021/08/23 01:25:36;;;;;;;5.13;2.40;;;;;;;17.31;76.82;100178.78;815109;54;20056;-80
2021/08/23 01:26:31;;;;;;;5.78;2.50;;;;;;;17.27;76.90;100191.00;814556;47;20049;-79
2021/08/23 01:27:17;;;;;;;9.50;2.60;;;;;;;17.36;76.29;100180.94;814989;54;20071;-79
2021/08/23 01:28:13;;;;;;;4.38;2.13;;;;;;;17.31;76.42;100180.66;814707;46;20062;-80
2021/08/23 01:29:06;;;;;;;4.50;2.50;;;;;;;17.28;76.70;100190.00;814434;54;20026;-79
2021/08/23 01:30:01;;;;;;;7.20;2.42;;;;;;;17.17;77.16;100179.63;814505;47;20019;-79
2021/08/23 01:31:03;;;;;;;6.07;2.63;;;;;;;17.17;76.92;100185.03;814990;47;20094;-78
2021/08/23 01:32:09;;;;;;;5.40;2.10;;;;;;;17.14;76.96;100182.69;815129;54;20042;-79
2021/08/23 01:32:55;;;;;;;7.68;2.53;;;;;;;17.22;76.76;100187.19;815031;54;20047;-80
2021/08/23 01:33:45;;;;;;;4.95;2.25;;;;;;;17.20;76.74;100184.66;814918;54;20038;-80
2021/08/23 01:34:32;;;;;;;;;;;;;;;17.13;76.91;100183.72;814941;54;20046;-79
2021/08/23 01:35:22;;;;;;;3.65;2.17;;;;;;;17.25;76.97;100178.69;814541;54;19950;-79
2021/08/23 01:36:08;;;;;;;6.05;2.60;;;;;;;17.36;76.45;100177.41;814505;47;20049;-79
2021/08/23 01:36:57;;;;;;;4.15;2.20;;;;;;;17.40;76.47;100179.56;814303;47;20065;-80
2021/08/23 01:37:43;;;;;;;4.88;2.25;;;;;;;17.35;76.55;100186.53;814695;47;20046;-79
2021/08/23 01:38:31;;;;;;;4.22;2.20;;;;;;;17.26;76.63;100189.31;814171;54;20056;-79
2021/08/23 01:39:18;;;;;;;7.32;2.53;;;;;;;17.24;76.82;100185.13;814444;47;20046;-79
2021/08/23 01:40:09;;;;;;;6.38;2.75;;;;;;;17.19;77.10;100188.41;814434;54;20041;-79
2021/08/23 01:40:59;;;;;;;5.80;2.53;;;;;;;17.35;76.30;100187.34;814716;54;20038;-80
2021/08/23 01:41:48;;;;;;;5.82;2.28;;;;;;;17.24;76.67;100185.97;815122;47;20133;-79
2021/08/23 01:42:35;;;;;;;9.55;3.83;;;;;;;17.27;76.77;100180.19;814352;54;20094;-80
2021/08/23 01:43:23;;;;;;;5.18;2.45;;;;;;;17.23;76.74;100178.06;815051;54;20053;-79
2021/08/23 01:44:10;;;;;;;8.90;2.63;;;;;;;17.20;76.69;100186.53;814459;46;20072;-79
2021/08/23 01:44:59;;;;;;;4.30;2.47;;;;;;;17.22;76.49;100181.78;814738;47;20180;-79
2021/08/23 01:45:45;;;;;;;4.93;2.55;;;;;;;17.35;76.35;100179.25;815111;47;20065;-79
2021/08/23 01:46:35;;;;;;;5.40;2.33;;;;;;;17.29;76.62;100178.13;814864;54;20069;-78
2021/08/23 01:47:24;;;;;;;6.20;2.50;;;;;;;17.20;76.75;100183.81;814418;47;20047;-80
2021/08/23 01:48:12;;;;;;;6.32;2.20;;;;;;;17.20;76.85;100184.66;814677;54;20041;-79
2021/08/23 01:48:59;;;;;;;4.32;2.22;;;;;;;17.31;76.48;100181.50;814687;47;20046;-79
2021/08/23 01:49:48;;;;;;;5.35;2.10;;;;;;;17.33;76.42;100178.63;814388;47;20042;-80
2021/08/23 01:50:34;;;;;;;5.95;2.40;;;;;;;17.31;76.38;100181.50;814617;47;20079;-79
2021/08/23 01:51:22;;;;;;;5.88;2.13;;;;;;;17.31;76.52;100184.19;814774;54;20083;-79
2021/08/23 01:52:10;;;;;;;4.68;2.10;;;;;;;17.45;76.25;100184.41;814625;47;20065;-79
2021/08/23 01:52:59;;;;;;;5.10;1.98;;;;;;;17.46;76.21;100186.06;815235;47;20069;-80
2021/08/23 01:53:45;;;;;;;5.88;2.30;;;;;;;17.45;76.21;100181.69;814594;54;20241;-79
2021/08/23 01:54:33;;;;;;;4.13;1.88;;;;;;;17.52;75.77;100185.31;814268;54;20632;-79
2021/08/23 01:55:19;;;;;;;4.20;2.28;;;;;;;17.66;75.61;100185.50;814991;39;20722;-78
2021/08/23 01:56:08;;;;;;;4.13;1.90;;;;;;;17.66;75.44;100182.81;814878;54;20034;-78
2021/08/23 01:56:54;;;;;;;4.00;1.70;;;;;;;17.67;75.34;100187.16;815027;54;20046;-79
2021/08/23 01:57:40;;;;;;;4.10;1.65;;;;;;;17.69;75.11;100185.13;815028;46;20687;-79
2021/08/23 01:58:28;;;;;;;4.75;2.08;;;;;;;17.60;75.61;100190.63;814543;47;20042;-78
2021/08/23 01:59:15;;;;;;;6.18;2.38;;;;;;;17.49;75.61;100190.25;814148;54;20039;-80
2021/08/23 02:00:03;;;;;;;4.82;2.40;;;;;;;17.39;75.76;100188.69;814681;54;20034;-78
2021/08/23 02:00:49;;;;;;;6.35;2.13;;;;;;;17.56;75.48;100183.94;814686;54;20129;-79
2021/08/23 02:01:38;;;;;;;4.95;2.00;;;;;;;17.59;75.52;100180.00;814947;54;20110;-79
2021/08/23 02:02:26;;;;;;;6.75;2.00;;;;;;;17.43;75.79;100187.25;814147;54;20072;-80
2021/08/23 02:03:15;;;;;;;4.78;2.50;;;;;;;17.60;75.49;100185.22;814636;54;20054;-79
2021/08/23 02:04:01;;;;;;;4.10;1.80;;;;;;;17.67;75.09;100182.59;814348;54;20120;-80
2021/08/23 02:04:50;;;;;;;3.53;2.03;;;;;;;17.52;75.44;100185.31;815519;39;20373;-79
2021/08/23 02:05:36;;;;;;;3.60;1.77;;;;;;;17.45;75.33;100184.41;816752;39;20589;-79
2021/08/23 02:06:25;;;;;;;4.60;2.10;;;;;;;17.42;75.76;100187.47;814518;54;20061;-78
2021/08/23 02:07:11;;;;;;;4.93;2.10;;;;;;;17.38;76.00;100191.56;814782;47;20035;-79
2021/08/23 02:08:00;;;;;;;7.88;2.45;;;;;;;17.54;75.31;100185.97;814589;47;20027;-79
2021/08/23 02:08:46;;;;;;;4.60;2.13;;;;;;;17.51;75.41;100188.22;814723;54;20043;-80
2021/08/23 02:09:34;;;;;;;4.65;2.17;;;;;;;17.41;75.53;100185.78;814112;54;20060;-80
2021/08/23 02:10:20;;;;;;;6.20;2.05;;;;;;;17.48;75.32;100186.69;814384;54;20038;-80
2021/08/23 02:11:09;;;;;;;4.78;2.28;;;;;;;17.33;75.94;100185.88;814511;47;20042;-79
2021/08/23 02:11:55;;;;;;;5.82;2.10;;;;;;;17.18;75.99;100189.41;814237;54;20034;-79
2021/08/23 02:12:43;;;;;;;5.60;2.63;;;;;;;17.13;76.47;100194.53;814608;47;20034;-79
2021/08/23 02:13:29;;;;;;;4.38;1.90;;;;;;;17.11;76.55;100196.56;815073;47;20039;-80
2021/08/23 02:14:18;;;;;;;5.47;2.20;;;;;;;17.11;76.54;100196.56;814537;54;20034;-79
2021/08/23 02:15:06;;;;;;;4.20;2.30;;;;;;;17.09;76.60;100195.94;814692;54;20047;-79
2021/08/23 02:15:54;;;;;;;5.43;2.13;;;;;;;17.21;76.08;100197.13;814855;54;20034;-79
2021/08/23 02:16:41;;;;;;;6.28;2.28;;;;;;;17.27;75.84;100196.41;815150;46;20113;-79
2021/08/23 02:17:32;;;;;;;4.35;2.10;;;;;;;17.19;75.98;100199.19;814255;47;20958;-79
2021/08/23 02:18:18;;;;;;;5.15;2.20;;;;;;;17.26;76.18;100193.88;814983;54;20649;-79
2021/08/23 02:19:06;;;;;;;4.72;1.98;;;;;;;17.19;76.25;100191.09;814870;54;20072;-79
2021/08/23 02:19:52;;;;;;;4.88;2.05;;;;;;;17.27;76.35;100193.72;814971;47;20067;-80
2021/08/23 02:20:41;;;;;;;7.00;2.40;;;;;;;17.38;75.73;100183.47;815154;47;20060;-79
2021/08/23 02:21:27;;;;;;;4.68;2.20;;;;;;;17.26;76.21;100200.13;816500;39;20556;-79
2021/08/23 02:22:15;;;;;;;4.28;2.15;;;;;;;17.29;76.06;100194.34;814717;54;20061;-78
2021/08/23 02:23:02;;;;;;;5.32;2.55;;;;;;;17.36;75.65;100191.75;814721;47;20031;-78
2021/08/23 02:23:51;;;;;;;5.90;2.10;;;;;;;17.31;76.00;100199.56;814932;47;20025;-79
2021/08/23 02:24:37;;;;;;;4.13;1.80;;;;;;;17.30;76.11;100193.31;814944;54;20046;-79
2021/08/23 02:25:25;;;;;;;4.35;1.95;;;;;;;17.37;75.70;100201.53;815110;47;20038;-79
2021/08/23 02:26:11;;;;;;;3.53;1.75;;;;;;;17.38;75.78;100188.88;814665;54;20963;-78
2021/08/23 02:27:00;;;;;;;4.68;1.90;;;;;;;17.33;76.02;100194.84;814942;47;20042;-78
2021/08/23 02:27:46;;;;;;;4.63;2.30;;;;;;;17.24;76.45;100188.66;814519;47;20022;-78
2021/08/23 02:28:35;;;;;;;4.80;2.22;;;;;;;17.27;76.19;100191.00;815231;54;20034;-78
2021/08/23 02:29:21;;;;;;;4.38;1.88;;;;;;;17.35;75.96;100198.16;815067;54;20064;-79
2021/08/23 02:30:10;;;;;;;4.28;2.20;;;;;;;17.41;76.02;100191.19;814474;54;20069;-79
2021/08/23 02:30:56;;;;;;;4.93;2.13;;;;;;;17.48;75.70;100191.28;814676;47;20141;-79
2021/08/23 02:31:45;;;;;;;3.92;1.80;;;;;;;17.48;75.85;100189.41;814922;54;20255;-79
2021/08/23 02:32:33;;;;;;;7.25;2.38;;;;;;;17.39;75.88;100187.81;814773;47;20042;-79
2021/08/23 02:33:22;;;;;;;4.32;1.80;;;;;;;17.51;75.65;100191.75;814861;47;20061;-79
2021/08/23 02:34:08;;;;;;;3.83;2.00;;;;;;;17.48;75.76;100186.69;816624;39;21086;-79
2021/08/23 02:34:57;;;;;;;4.63;2.00;;;;;;;17.43;75.82;100195.38;814867;54;20046;-78
2021/08/23 02:35:43;;;;;;;3.88;1.80;;;;;;;17.46;75.77;100188.78;814937;54;20728;-78
2021/08/23 02:36:31;;;;;;;3.70;1.80;;;;;;;17.54;75.74;100190.53;814755;46;20046;-78
2021/08/23 02:37:17;;;;;;;4.03;1.95;;;;;;;17.62;75.19;100190.41;814997;54;20039;-78
2021/08/23 02:38:07;;;;;;;4.30;2.00;;;;;;;17.59;75.49;100193.53;815943;39;20457;-79
2021/08/23 02:38:53;;;;;;;4.05;1.90;;;;;;;17.55;75.33;100187.66;814059;47;20818;-79
2021/08/23 02:39:41;;;;;;;5.10;2.08;;;;;;;17.49;75.92;100185.69;813960;54;20042;-78
2021/08/23 02:40:27;;;;;;;4.70;2.08;;;;;;;17.42;75.90;100191.03;814704;54;20103;-78
2021/08/23 02:41:15;;;;;;;4.30;1.90;;;;;;;17.50;75.85;100194.66;815141;54;20048;-79
2021/08/23 02:42:02;;;;;;;4.00;2.20;;;;;;;17.38;76.28;100186.16;814909;54;20039;-78
2021/08/23 02:42:50;;;;;;;5.30;2.47;;;;;;;17.30;76.52;100189.78;814354;46;20038;-79
2021/08/23 02:43:36;;;;;;;7.05;2.55;;;;;;;17.26;76.62;100191.19;814779;47;20038;-78
2021/08/23 02:44:25;;;;;;;6.78;2.67;;;;;;;17.25;76.69;100186.78;815262;47;20061;-79
2021/08/23 02:45:12;;;;;;;4.95;2.45;;;;;;;17.30;76.56;100197.91;814757;54;20042;-78
2021/08/23 02:46:00;;;;;;;4.50;2.20;;;;;;;17.30;76.56;100190.63;814482;54;20131;-78
2021/08/23 02:46:46;;;;;;;4.30;2.15;;;;;;;17.25;76.60;100193.06;815169;54;20042;-79
2021/08/23 02:47:38;;;;;;;4.65;2.35;;;;;;;17.20;76.54;100195.44;815330;54;20034;-79
2021/08/23 02:48:24;;;;;;;4.05;2.05;;;;;;;17.34;76.32;100187.56;815307;47;20042;-79
2021/08/23 02:49:12;;;;;;;5.47;2.17;;;;;;;17.38;76.22;100184.28;819510;39;20544;-79
2021/08/23 02:49:58;;;;;;;3.83;2.03;;;;;;;17.49;75.60;100187.56;814810;47;20609;-78
2021/08/23 02:50:47;;;;;;;4.00;2.13;;;;;;;17.57;75.44;100192.88;814867;54;20034;-79
2021/08/23 02:51:39;;;;;;;3.92;2.00;;;;;;;17.62;75.07;100182.31;814904;46;20556;-78
2021/08/23 02:52:27;;;;;;;5.07;2.20;;;;;;;17.58;75.47;100189.13;815077;54;20142;-78
2021/08/23 02:53:15;;;;;;;3.72;1.80;;;;;;;17.55;75.72;100187.66;814872;47;20038;-78
2021/08/23 02:54:04;;;;;;;5.80;2.20;;;;;;;17.64;75.35;100184.84;815490;31;20618;-78
2021/08/23 02:54:50;;;;;;;5.25;2.13;;;;;;;17.61;75.49;100186.91;816277;39;20794;-77
2021/08/23 02:55:38;;;;;;;3.78;1.70;;;;;;;17.66;74.93;100185.50;814922;47;20061;-77
2021/08/23 02:56:24;;;;;;;4.00;1.73;;;;;;;17.71;74.86;100181.19;814568;54;20038;-79
2021/08/23 02:57:20;;;;;;;4.10;2.03;;;;;;;17.63;74.94;100181.28;814860;54;20719;-79
2021/08/23 02:58:05;;;;;;;4.35;2.28;;;;;;;17.46;75.94;100183.38;814498;46;20038;-78
2021/08/23 02:58:54;;;;;;;6.80;2.47;;;;;;;17.51;75.71;100185.50;814870;54;20042;-79
2021/08/23 02:59:40;;;;;;;4.80;2.10;;;;;;;17.45;76.12;100184.41;814949;54;20105;-80
2021/08/23 03:00:30;;;;;;;4.97;2.30;;;;;;;17.28;76.05;100186.44;814577;54;20085;-78
2021/08/23 03:01:16;;;;;;;5.15;2.40;;;;;;;17.18;76.91;100189.41;814931;54;20064;-78
2021/08/23 03:02:05;;;;;;;6.60;2.40;;;;;;;17.21;76.51;100185.50;815235;54;20139;-79
2021/08/23 03:02:54;;;;;;;7.10;2.20;;;;;;;17.29;76.58;100183.53;814800;46;20058;-78
2021/08/23 03:03:43;;;;;;;4.93;2.08;;;;;;;17.25;76.59;100187.66;815252;54;20157;-79
2021/08/23 03:04:29;;;;;;;5.50;2.55;;;;;;;17.21;76.74;100186.31;814611;46;20772;-78
2021/08/23 03:05:18;;;;;;;5.55;2.30;;;;;;;17.24;76.44;100185.13;814927;46;20077;-81
2021/08/23 03:06:04;;;;;;;4.22;2.22;;;;;;;17.28;76.56;100190.00;814923;54;20046;-78
2021/08/23 03:06:53;;;;;;;5.32;2.15;;;;;;;17.25;76.72;100182.25;814514;54;20034;-78
2021/08/23 03:07:39;;;;;;;5.57;2.20;;;;;;;17.26;76.77;100186.63;815315;54;20063;-78
2021/08/23 03:08:27;;;;;;;6.97;2.58;;;;;;;17.30;76.59;100190.63;814777;47;20034;-79
2021/08/23 03:09:13;;;;;;;5.72;1.85;;;;;;;17.46;76.23;100178.78;814783;46;20077;-78
2021/08/23 03:10:02;;;;;;;3.65;1.80;;;;;;;17.49;75.95;100179.44;814918;54;20077;-78
2021/08/23 03:10:51;;;;;;;6.38;1.95;;;;;;;17.52;75.99;100185.31;815112;47;20157;-79
2021/08/23 03:11:39;;;;;;;4.68;1.98;;;;;;;17.58;75.71;100181.84;814933;47;20058;-78
2021/08/23 03:12:25;;;;;;;4.65;2.20;;;;;;;17.53;75.95;100187.00;814894;47;20022;-78
2021/08/23 03:13:14;;;;;;;5.72;2.10;;;;;;;17.54;75.61;100179.72;814857;54;20060;-78
2021/08/23 03:14:00;;;;;;;5.85;1.92;;;;;;;17.54;75.83;100185.97;815240;54;20050;-79
2021/08/23 03:14:49;;;;;;;5.10;2.22;;;;;;;17.47;76.13;100193.16;815116;54;20049;-79
2021/08/23 03:15:35;;;;;;;5.50;2.42;;;;;;;17.29;76.56;100194.34;815303;54;20094;-79
2021/08/23 03:16:23;;;;;;;5.07;2.13;;;;;;;17.38;76.33;100188.88;815400;54;20066;-78
2021/08/23 03:17:10;;;;;;;5.57;2.20;;;;;;;17.55;75.82;100186.81;815095;54;20047;-78
2021/08/23 03:18:01;;;;;;;3.83;1.88;;;;;;;17.59;75.50;100190.81;814874;47;20644;-79
2021/08/23 03:18:47;;;;;;;4.28;1.88;;;;;;;17.51;75.64;100189.03;814864;54;20031;-78
2021/08/23 03:19:35;;;;;;;4.43;2.10;;;;;;;17.52;75.84;100188.03;814612;47;20060;-79
2021/08/23 03:20:21;;;;;;;5.05;2.40;;;;;;;17.41;76.17;100193.88;814779;46;20038;-79
2021/08/23 03:21:10;;;;;;;5.97;2.35;;;;;;;17.48;75.88;100186.69;815714;39;20587;-77
2021/08/23 03:21:56;;;;;;;6.13;2.08;;;;;;;17.61;75.54;100192.31;814637;47;20038;-79
2021/08/23 03:22:45;;;;;;;7.57;2.25;;;;;;;17.46;76.00;100188.78;814965;47;20061;-79
2021/08/23 03:23:31;;;;;;;4.50;2.30;;;;;;;17.39;76.16;100185.13;814576;54;20046;-79
2021/08/23 03:24:20;;;;;;;8.07;2.53;;;;;;;17.38;76.18;100189.69;814660;54;20034;-78
2021/08/23 03:25:06;;;;;;;7.22;2.65;;;;;;;17.33;76.61;100196.69;814911;47;20109;-78
2021/08/23 03:25:55;;;;;;;7.57;2.60;;;;;;;17.25;76.91;100197.59;814687;54;20129;-79
2021/08/23 03:26:41;;;;;;;4.80;2.50;;;;;;;17.27;76.86;100191.00;814915;47;20043;-79
2021/08/23 03:27:30;;;;;;;4.80;2.30;;;;;;;17.30;76.68;100190.63;814878;47;20042;-79
2021/08/23 03:28:18;;;;;;;6.30;2.53;;;;;;;17.32;76.60;100198.56;814758;54;20660;-79
2021/08/23 03:29:07;;;;;;;5.22;2.10;;;;;;;17.35;76.52;100203.56;814991;54;20038;-78
2021/08/23 03:29:53;;;;;;;5.00;2.28;;;;;;;17.43;76.38;100189.13;814582;47;20034;-78
2021/08/23 03:30:42;;;;;;;4.07;2.00;;;;;;;17.44;76.29;100197.06;814796;54;20059;-78
2021/08/23 03:31:35;;;;;;;5.22;2.45;;;;;;;17.31;76.44;100196.88;814577;54;20031;-80
2021/08/23 03:32:24;;;;;;;5.22;2.42;;;;;;;17.26;76.83;100200.13;814564;54;20046;-79
2021/08/23 03:33:13;;;;;;;4.10;1.92;;;;;;;17.21;76.72;100191.72;814824;47;20046;-78
2021/08/23 03:34:01;;;;;;;5.07;2.60;;;;;;;17.22;76.73;100190.72;814731;47;20073;-79
2021/08/23 03:34:48;;;;;;;6.88;2.50;;;;;;;17.18;77.22;100197.53;814925;46;20031;-78
2021/08/23 03:35:38;;;;;;;8.35;2.65;;;;;;;17.13;77.50;100198.06;814666;54;20687;-79
2021/08/23 03:36:26;;;;;;;4.25;2.22;;;;;;;17.21;77.20;100197.13;814822;54;20082;-79
2021/08/23 03:37:12;;;;;;;4.50;2.22;;;;;;;17.22;77.17;100195.28;814935;47;20046;-82
2021/08/23 03:38:02;;;;;;;8.52;2.75;;;;;;;17.25;76.89;100192.19;814798;47;20051;-80
2021/08/23 03:38:48;;;;;;;5.50;2.63;;;;;;;17.27;77.01;100196.41;814900;54;20038;-79
2021/08/23 03:39:34;;;;;;;4.85;2.20;;;;;;;17.25;77.19;100197.59;814977;39;20410;-79
2021/08/23 03:40:22;;;;;;;6.03;2.67;;;;;;;17.15;77.49;100197.88;814427;54;20041;-79
2021/08/23 03:41:09;;;;;;;5.47;2.45;;;;;;;17.10;77.68;100194.88;814774;54;20046;-78
2021/08/23 03:41:57;;;;;;;5.20;2.30;;;;;;;17.04;77.79;100190.22;814653;54;20042;-79
2021/08/23 03:42:43;;;;;;;5.25;2.38;;;;;;;17.07;77.83;100190.69;814862;54;20023;-78
2021/08/23 03:43:32;;;;;;;7.53;2.92;;;;;;;16.99;77.99;100188.94;815243;54;20039;-79
2021/08/23 03:44:18;;;;;;;5.35;2.55;;;;;;;17.10;77.74;100189.47;815114;47;20134;-79
2021/08/23 03:45:08;;;;;;;6.53;2.97;;;;;;;17.05;77.66;100191.91;814816;47;20037;-78
2021/08/23 03:45:54;;;;;;;7.35;2.50;;;;;;;17.07;77.54;100187.16;814971;54;20047;-79
2021/08/23 03:46:43;;;;;;;4.22;2.42;;;;;;;17.13;77.59;100189.13;815061;47;20388;-78
2021/08/23 03:47:29;;;;;;;5.68;2.50;;;;;;;17.13;77.45;100189.97;816066;39;20348;-79